sensor_id;sensor_type;location;lat;lon;timestamp;P1;durP1;ratioP1;P2;durP2;ratioP2
14933;SDS011;7560;51.364;12.384;2023-07-20T00:02:27;22.25;;;17.83;;
14933;SDS011;7560;51.364;12.384;2023-07-20T00:07:28;19.15;;;16.92;;
14933;SDS011;7560;51.364;12.384;2023-07-20T00:12:30;18.13;;;14.98;;
14933;SDS011;7560;51.364;12.384;2023-07-20T00:17:32;18.27;;;14.48;;
14933;SDS011;7560;51.364;12.384;2023-07-20T00:22:34;18.92;;;13.18;;
14933;SDS011;7560;51.364;12.384;2023-07-20T00:27:36;15.80;;;12.88;;
14933;SDS011;7560;51.364;12.384;2023-07-20T00:32:37;15.48;;;12.95;;
14933;SDS011;7560;51.364;12.384;2023-07-20T00:37:40;16.48;;;12.60;;
14933;SDS011;7560;51.364;12.384;2023-07-20T00:42:42;17.70;;;13.75;;
14933;SDS011;7560;51.364;12.384;2023-07-20T00:47:43;16.65;;;13.43;;
14933;SDS011;7560;51.364;12.384;2023-07-20T00:52:45;16.10;;;12.90;;
14933;SDS011;7560;51.364;12.384;2023-07-20T00:57:47;15.85;;;12.95;;
14933;SDS011;7560;51.364;12.384;2023-07-20T01:02:49;19.63;;;15.65;;
14933;SDS011;7560;51.364;12.384;2023-07-20T01:07:57;18.20;;;14.73;;
14933;SDS011;7560;51.364;12.384;2023-07-20T01:13:03;18.25;;;14.18;;
14933;SDS011;7560;51.364;12.384;2023-07-20T01:18:08;18.27;;;15.48;;
14933;SDS011;7560;51.364;12.384;2023-07-20T01:23:27;16.90;;;14.48;;
14933;SDS011;7560;51.364;12.384;2023-07-20T01:34:10;16.25;;;12.98;;
14933;SDS011;7560;51.364;12.384;2023-07-20T01:39:19;17.95;;;13.43;;
14933;SDS011;7560;51.364;12.384;2023-07-20T01:44:21;15.80;;;12.18;;
14933;SDS011;7560;51.364;12.384;2023-07-20T01:49:23;14.65;;;10.85;;
14933;SDS011;7560;51.364;12.384;2023-07-20T01:54:25;12.82;;;9.88;;
14933;SDS011;7560;51.364;12.384;2023-07-20T01:59:27;11.98;;;9.77;;
14933;SDS011;7560;51.364;12.384;2023-07-20T02:04:28;11.00;;;9.65;;
14933;SDS011;7560;51.364;12.384;2023-07-20T02:09:30;10.48;;;8.93;;
14933;SDS011;7560;51.364;12.384;2023-07-20T02:14:32;10.60;;;9.05;;
14933;SDS011;7560;51.364;12.384;2023-07-20T02:19:34;9.57;;;8.52;;
14933;SDS011;7560;51.364;12.384;2023-07-20T02:24:36;11.93;;;9.10;;
14933;SDS011;7560;51.364;12.384;2023-07-20T02:29:37;9.90;;;8.90;;
14933;SDS011;7560;51.364;12.384;2023-07-20T02:34:39;13.60;;;8.73;;
14933;SDS011;7560;51.364;12.384;2023-07-20T02:39:41;11.20;;;8.30;;
14933;SDS011;7560;51.364;12.384;2023-07-20T02:44:43;8.35;;;7.40;;
14933;SDS011;7560;51.364;12.384;2023-07-20T02:49:45;9.60;;;7.45;;
14933;SDS011;7560;51.364;12.384;2023-07-20T02:54:47;9.32;;;7.53;;
14933;SDS011;7560;51.364;12.384;2023-07-20T02:59:49;8.00;;;7.18;;
14933;SDS011;7560;51.364;12.384;2023-07-20T03:04:50;8.18;;;6.88;;
14933;SDS011;7560;51.364;12.384;2023-07-20T03:09:52;9.02;;;8.10;;
14933;SDS011;7560;51.364;12.384;2023-07-20T03:14:54;10.15;;;8.25;;
14933;SDS011;7560;51.364;12.384;2023-07-20T03:19:58;10.48;;;8.50;;
14933;SDS011;7560;51.364;12.384;2023-07-20T03:25:01;12.57;;;7.85;;
14933;SDS011;7560;51.364;12.384;2023-07-20T03:30:03;10.50;;;7.18;;
14933;SDS011;7560;51.364;12.384;2023-07-20T03:35:07;8.80;;;7.03;;
14933;SDS011;7560;51.364;12.384;2023-07-20T03:40:09;7.68;;;6.88;;
14933;SDS011;7560;51.364;12.384;2023-07-20T03:45:11;9.38;;;7.43;;
14933;SDS011;7560;51.364;12.384;2023-07-20T03:50:13;9.00;;;6.95;;
14933;SDS011;7560;51.364;12.384;2023-07-20T03:55:15;8.52;;;6.45;;
14933;SDS011;7560;51.364;12.384;2023-07-20T04:00:17;8.88;;;6.15;;
14933;SDS011;7560;51.364;12.384;2023-07-20T04:05:19;8.90;;;6.35;;
14933;SDS011;7560;51.364;12.384;2023-07-20T04:10:21;8.90;;;6.47;;
14933;SDS011;7560;51.364;12.384;2023-07-20T04:15:23;8.80;;;6.18;;
14933;SDS011;7560;51.364;12.384;2023-07-20T04:20:24;8.02;;;5.60;;
14933;SDS011;7560;51.364;12.384;2023-07-20T04:25:26;8.68;;;6.13;;
14933;SDS011;7560;51.364;12.384;2023-07-20T04:30:28;9.00;;;6.45;;
14933;SDS011;7560;51.364;12.384;2023-07-20T04:40:51;10.00;;;6.60;;
14933;SDS011;7560;51.364;12.384;2023-07-20T04:45:52;8.05;;;6.22;;
14933;SDS011;7560;51.364;12.384;2023-07-20T04:50:54;8.93;;;6.00;;
14933;SDS011;7560;51.364;12.384;2023-07-20T04:55:57;9.35;;;5.97;;
14933;SDS011;7560;51.364;12.384;2023-07-20T05:00:58;10.98;;;5.93;;
14933;SDS011;7560;51.364;12.384;2023-07-20T05:06:00;7.20;;;5.85;;
14933;SDS011;7560;51.364;12.384;2023-07-20T05:11:02;6.43;;;5.47;;
14933;SDS011;7560;51.364;12.384;2023-07-20T05:16:04;7.55;;;5.90;;
14933;SDS011;7560;51.364;12.384;2023-07-20T05:21:06;5.72;;;5.10;;
14933;SDS011;7560;51.364;12.384;2023-07-20T05:26:08;6.82;;;5.47;;
14933;SDS011;7560;51.364;12.384;2023-07-20T05:31:10;5.45;;;4.70;;
14933;SDS011;7560;51.364;12.384;2023-07-20T05:36:12;7.53;;;4.72;;
14933;SDS011;7560;51.364;12.384;2023-07-20T05:41:14;9.40;;;5.35;;
14933;SDS011;7560;51.364;12.384;2023-07-20T05:46:16;8.20;;;5.03;;
14933;SDS011;7560;51.364;12.384;2023-07-20T05:51:17;9.15;;;5.15;;
14933;SDS011;7560;51.364;12.384;2023-07-20T05:56:20;6.25;;;4.93;;
14933;SDS011;7560;51.364;12.384;2023-07-20T06:01:22;9.18;;;4.47;;
14933;SDS011;7560;51.364;12.384;2023-07-20T06:06:24;5.60;;;4.75;;
14933;SDS011;7560;51.364;12.384;2023-07-20T06:11:26;9.57;;;4.72;;
14933;SDS011;7560;51.364;12.384;2023-07-20T06:16:28;6.35;;;4.30;;
14933;SDS011;7560;51.364;12.384;2023-07-20T06:21:30;5.93;;;4.07;;
14933;SDS011;7560;51.364;12.384;2023-07-20T06:26:32;6.03;;;3.80;;
14933;SDS011;7560;51.364;12.384;2023-07-20T06:31:39;5.10;;;4.13;;
14933;SDS011;7560;51.364;12.384;2023-07-20T06:36:41;3.50;;;3.20;;
14933;SDS011;7560;51.364;12.384;2023-07-20T06:41:43;4.35;;;2.72;;
14933;SDS011;7560;51.364;12.384;2023-07-20T06:46:45;4.38;;;2.88;;
14933;SDS011;7560;51.364;12.384;2023-07-20T06:51:46;4.03;;;2.45;;
14933;SDS011;7560;51.364;12.384;2023-07-20T06:56:48;3.38;;;2.40;;
14933;SDS011;7560;51.364;12.384;2023-07-20T07:02:10;4.03;;;2.40;;
14933;SDS011;7560;51.364;12.384;2023-07-20T07:07:15;4.13;;;2.50;;
14933;SDS011;7560;51.364;12.384;2023-07-20T07:12:27;3.28;;;2.28;;
14933;SDS011;7560;51.364;12.384;2023-07-20T07:17:29;5.88;;;3.97;;
14933;SDS011;7560;51.364;12.384;2023-07-20T07:22:34;5.88;;;3.60;;
14933;SDS011;7560;51.364;12.384;2023-07-20T07:27:36;6.30;;;3.80;;
14933;SDS011;7560;51.364;12.384;2023-07-20T07:32:38;5.65;;;3.63;;
14933;SDS011;7560;51.364;12.384;2023-07-20T07:37:40;6.88;;;3.75;;
14933;SDS011;7560;51.364;12.384;2023-07-20T07:43:02;3.60;;;3.20;;
14933;SDS011;7560;51.364;12.384;2023-07-20T07:48:04;6.22;;;3.50;;
14933;SDS011;7560;51.364;12.384;2023-07-20T07:53:07;5.05;;;3.85;;
14933;SDS011;7560;51.364;12.384;2023-07-20T07:58:10;4.05;;;3.67;;
14933;SDS011;7560;51.364;12.384;2023-07-20T08:03:11;4.22;;;3.75;;
14933;SDS011;7560;51.364;12.384;2023-07-20T08:08:14;6.38;;;3.25;;
14933;SDS011;7560;51.364;12.384;2023-07-20T08:13:16;4.63;;;3.38;;
14933;SDS011;7560;51.364;12.384;2023-07-20T08:18:17;4.93;;;3.60;;
14933;SDS011;7560;51.364;12.384;2023-07-20T08:23:19;3.83;;;3.45;;
14933;SDS011;7560;51.364;12.384;2023-07-20T08:28:21;4.05;;;3.65;;
14933;SDS011;7560;51.364;12.384;2023-07-20T08:33:23;4.03;;;3.42;;
14933;SDS011;7560;51.364;12.384;2023-07-20T08:38:25;5.50;;;3.85;;
14933;SDS011;7560;51.364;12.384;2023-07-20T08:43:27;4.20;;;3.80;;
14933;SDS011;7560;51.364;12.384;2023-07-20T08:48:29;4.63;;;3.35;;
14933;SDS011;7560;51.364;12.384;2023-07-20T08:53:32;3.90;;;3.28;;
14933;SDS011;7560;51.364;12.384;2023-07-20T08:58:35;4.03;;;3.13;;
14933;SDS011;7560;51.364;12.384;2023-07-20T09:03:38;4.40;;;3.50;;
14933;SDS011;7560;51.364;12.384;2023-07-20T09:08:40;4.47;;;3.40;;
14933;SDS011;7560;51.364;12.384;2023-07-20T09:13:42;3.97;;;3.50;;
14933;SDS011;7560;51.364;12.384;2023-07-20T09:18:44;5.05;;;3.65;;
14933;SDS011;7560;51.364;12.384;2023-07-20T09:23:46;5.05;;;3.95;;
14933;SDS011;7560;51.364;12.384;2023-07-20T09:28:51;4.35;;;3.95;;
14933;SDS011;7560;51.364;12.384;2023-07-20T09:33:55;5.43;;;3.63;;
14933;SDS011;7560;51.364;12.384;2023-07-20T09:38:59;5.68;;;4.70;;
14933;SDS011;7560;51.364;12.384;2023-07-20T09:44:04;5.88;;;4.63;;
14933;SDS011;7560;51.364;12.384;2023-07-20T09:49:26;5.10;;;4.70;;
14933;SDS011;7560;51.364;12.384;2023-07-20T09:54:31;8.75;;;6.53;;
14933;SDS011;7560;51.364;12.384;2023-07-20T09:59:33;8.30;;;7.57;;
14933;SDS011;7560;51.364;12.384;2023-07-20T10:04:36;9.13;;;7.63;;
14933;SDS011;7560;51.364;12.384;2023-07-20T10:09:39;8.60;;;7.68;;
14933;SDS011;7560;51.364;12.384;2023-07-20T10:14:44;8.80;;;6.95;;
14933;SDS011;7560;51.364;12.384;2023-07-20T10:19:54;11.38;;;7.25;;
14933;SDS011;7560;51.364;12.384;2023-07-20T10:24:58;6.50;;;5.70;;
14933;SDS011;7560;51.364;12.384;2023-07-20T10:30:00;6.63;;;4.50;;
14933;SDS011;7560;51.364;12.384;2023-07-20T10:35:16;4.22;;;3.80;;
14933;SDS011;7560;51.364;12.384;2023-07-20T10:50:43;3.75;;;3.45;;
14933;SDS011;7560;51.364;12.384;2023-07-20T10:55:45;3.67;;;3.38;;
14933;SDS011;7560;51.364;12.384;2023-07-20T11:01:01;3.90;;;3.60;;
14933;SDS011;7560;51.364;12.384;2023-07-20T11:11:29;3.08;;;2.78;;
14933;SDS011;7560;51.364;12.384;2023-07-20T11:21:38;2.28;;;1.80;;
14933;SDS011;7560;51.364;12.384;2023-07-20T11:27:01;1.92;;;1.80;;
14933;SDS011;7560;51.364;12.384;2023-07-20T11:32:03;1.88;;;1.77;;
14933;SDS011;7560;51.364;12.384;2023-07-20T11:37:07;2.20;;;2.00;;
14933;SDS011;7560;51.364;12.384;2023-07-20T11:42:12;2.88;;;2.20;;
14933;SDS011;7560;51.364;12.384;2023-07-20T11:47:14;2.72;;;2.45;;
14933;SDS011;7560;51.364;12.384;2023-07-20T11:52:16;3.30;;;2.15;;
14933;SDS011;7560;51.364;12.384;2023-07-20T11:57:22;2.70;;;2.25;;
14933;SDS011;7560;51.364;12.384;2023-07-20T12:02:24;2.13;;;1.90;;
14933;SDS011;7560;51.364;12.384;2023-07-20T12:07:28;3.65;;;2.00;;
14933;SDS011;7560;51.364;12.384;2023-07-20T12:12:51;3.10;;;2.55;;
14933;SDS011;7560;51.364;12.384;2023-07-20T12:17:53;3.95;;;2.40;;
14933;SDS011;7560;51.364;12.384;2023-07-20T12:22:58;2.63;;;2.40;;
14933;SDS011;7560;51.364;12.384;2023-07-20T12:28:10;3.15;;;2.15;;
14933;SDS011;7560;51.364;12.384;2023-07-20T12:33:12;3.13;;;1.20;;
14933;SDS011;7560;51.364;12.384;2023-07-20T12:38:17;4.32;;;0.98;;
14933;SDS011;7560;51.364;12.384;2023-07-20T12:43:19;1.13;;;1.00;;
14933;SDS011;7560;51.364;12.384;2023-07-20T12:48:21;1.45;;;0.90;;
14933;SDS011;7560;51.364;12.384;2023-07-20T12:53:24;0.77;;;0.70;;
14933;SDS011;7560;51.364;12.384;2023-07-20T12:58:26;1.13;;;0.90;;
14933;SDS011;7560;51.364;12.384;2023-07-20T13:03:28;1.50;;;0.80;;
14933;SDS011;7560;51.364;12.384;2023-07-20T13:08:32;1.10;;;0.90;;
14933;SDS011;7560;51.364;12.384;2023-07-20T13:13:34;0.93;;;0.93;;
14933;SDS011;7560;51.364;12.384;2023-07-20T13:18:37;0.95;;;0.85;;
14933;SDS011;7560;51.364;12.384;2023-07-20T13:23:38;1.10;;;1.10;;
14933;SDS011;7560;51.364;12.384;2023-07-20T13:28:40;1.42;;;1.33;;
14933;SDS011;7560;51.364;12.384;2023-07-20T13:33:43;1.50;;;1.40;;
14933;SDS011;7560;51.364;12.384;2023-07-20T13:38:45;1.60;;;1.50;;
14933;SDS011;7560;51.364;12.384;2023-07-20T13:43:46;1.80;;;1.70;;
14933;SDS011;7560;51.364;12.384;2023-07-20T13:48:48;2.22;;;2.10;;
14933;SDS011;7560;51.364;12.384;2023-07-20T13:53:56;2.40;;;2.20;;
14933;SDS011;7560;51.364;12.384;2023-07-20T13:58:58;2.28;;;2.10;;
14933;SDS011;7560;51.364;12.384;2023-07-20T14:04:00;2.28;;;2.08;;
14933;SDS011;7560;51.364;12.384;2023-07-20T14:09:05;2.00;;;1.90;;
14933;SDS011;7560;51.364;12.384;2023-07-20T14:14:07;2.70;;;2.50;;
14933;SDS011;7560;51.364;12.384;2023-07-20T14:19:09;2.40;;;2.20;;
14933;SDS011;7560;51.364;12.384;2023-07-20T14:24:11;2.03;;;1.92;;
14933;SDS011;7560;51.364;12.384;2023-07-20T14:29:13;1.90;;;1.80;;
14933;SDS011;7560;51.364;12.384;2023-07-20T14:34:15;2.10;;;2.00;;
14933;SDS011;7560;51.364;12.384;2023-07-20T14:39:17;2.03;;;1.85;;
14933;SDS011;7560;51.364;12.384;2023-07-20T14:44:18;1.80;;;1.70;;
14933;SDS011;7560;51.364;12.384;2023-07-20T14:49:21;2.28;;;1.77;;
14933;SDS011;7560;51.364;12.384;2023-07-20T14:54:23;2.08;;;1.60;;
14933;SDS011;7560;51.364;12.384;2023-07-20T14:59:26;3.45;;;1.90;;
14933;SDS011;7560;51.364;12.384;2023-07-20T15:04:27;1.77;;;1.67;;
14933;SDS011;7560;51.364;12.384;2023-07-20T15:09:29;2.30;;;2.10;;
14933;SDS011;7560;51.364;12.384;2023-07-20T15:14:31;2.33;;;2.13;;
14933;SDS011;7560;51.364;12.384;2023-07-20T15:19:33;2.40;;;2.20;;
14933;SDS011;7560;51.364;12.384;2023-07-20T15:24:35;2.30;;;2.20;;
14933;SDS011;7560;51.364;12.384;2023-07-20T15:29:37;1.63;;;1.40;;
14933;SDS011;7560;51.364;12.384;2023-07-20T15:34:39;1.00;;;0.90;;
14933;SDS011;7560;51.364;12.384;2023-07-20T15:39:41;1.02;;;0.80;;
14933;SDS011;7560;51.364;12.384;2023-07-20T15:44:42;1.30;;;0.73;;
14933;SDS011;7560;51.364;12.384;2023-07-20T15:49:44;0.90;;;0.90;;
14933;SDS011;7560;51.364;12.384;2023-07-20T15:54:47;0.60;;;0.60;;
14933;SDS011;7560;51.364;12.384;2023-07-20T15:59:48;0.70;;;0.70;;
14933;SDS011;7560;51.364;12.384;2023-07-20T16:04:50;2.05;;;0.65;;
14933;SDS011;7560;51.364;12.384;2023-07-20T16:09:54;0.90;;;0.70;;
14933;SDS011;7560;51.364;12.384;2023-07-20T16:14:59;0.80;;;0.80;;
14933;SDS011;7560;51.364;12.384;2023-07-20T16:20:04;0.70;;;0.60;;
14933;SDS011;7560;51.364;12.384;2023-07-20T16:25:09;1.48;;;0.90;;
14933;SDS011;7560;51.364;12.384;2023-07-20T16:30:12;2.15;;;1.10;;
14933;SDS011;7560;51.364;12.384;2023-07-20T16:35:15;2.35;;;1.20;;
14933;SDS011;7560;51.364;12.384;2023-07-20T16:40:17;3.72;;;2.83;;
14933;SDS011;7560;51.364;12.384;2023-07-20T16:45:21;12.07;;;6.22;;
14933;SDS011;7560;51.364;12.384;2023-07-20T16:50:23;4.70;;;2.70;;
14933;SDS011;7560;51.364;12.384;2023-07-20T16:55:26;1.30;;;1.20;;
14933;SDS011;7560;51.364;12.384;2023-07-20T17:00:28;1.15;;;1.13;;
14933;SDS011;7560;51.364;12.384;2023-07-20T17:05:30;1.63;;;0.90;;
14933;SDS011;7560;51.364;12.384;2023-07-20T17:10:32;2.72;;;1.50;;
14933;SDS011;7560;51.364;12.384;2023-07-20T17:15:33;1.05;;;0.90;;
14933;SDS011;7560;51.364;12.384;2023-07-20T17:20:35;0.70;;;0.70;;
14933;SDS011;7560;51.364;12.384;2023-07-20T17:25:46;0.60;;;0.60;;
14933;SDS011;7560;51.364;12.384;2023-07-20T17:31:00;0.60;;;0.60;;
14933;SDS011;7560;51.364;12.384;2023-07-20T17:36:02;0.65;;;0.60;;
14933;SDS011;7560;51.364;12.384;2023-07-20T17:41:07;0.65;;;0.55;;
14933;SDS011;7560;51.364;12.384;2023-07-20T17:46:09;1.27;;;0.65;;
14933;SDS011;7560;51.364;12.384;2023-07-20T17:51:14;0.50;;;0.50;;
14933;SDS011;7560;51.364;12.384;2023-07-20T17:56:17;1.70;;;1.30;;
14933;SDS011;7560;51.364;12.384;2023-07-20T18:01:19;0.75;;;0.63;;
14933;SDS011;7560;51.364;12.384;2023-07-20T18:06:21;1.90;;;1.05;;
14933;SDS011;7560;51.364;12.384;2023-07-20T18:11:23;0.88;;;0.82;;
14933;SDS011;7560;51.364;12.384;2023-07-20T18:16:25;1.25;;;0.73;;
14933;SDS011;7560;51.364;12.384;2023-07-20T18:21:27;0.80;;;0.80;;
14933;SDS011;7560;51.364;12.384;2023-07-20T18:26:28;1.95;;;0.90;;
14933;SDS011;7560;51.364;12.384;2023-07-20T18:31:30;2.08;;;1.00;;
14933;SDS011;7560;51.364;12.384;2023-07-20T18:36:32;1.30;;;1.00;;
14933;SDS011;7560;51.364;12.384;2023-07-20T18:41:34;1.50;;;0.90;;
14933;SDS011;7560;51.364;12.384;2023-07-20T18:46:36;1.00;;;1.00;;
14933;SDS011;7560;51.364;12.384;2023-07-20T18:51:37;1.00;;;0.90;;
14933;SDS011;7560;51.364;12.384;2023-07-20T18:56:39;1.25;;;1.15;;
14933;SDS011;7560;51.364;12.384;2023-07-20T19:01:41;1.00;;;0.90;;
14933;SDS011;7560;51.364;12.384;2023-07-20T19:06:43;1.02;;;1.00;;
14933;SDS011;7560;51.364;12.384;2023-07-20T19:11:45;2.78;;;1.00;;
14933;SDS011;7560;51.364;12.384;2023-07-20T19:16:49;7.30;;;1.25;;
14933;SDS011;7560;51.364;12.384;2023-07-20T19:21:51;1.23;;;1.13;;
14933;SDS011;7560;51.364;12.384;2023-07-20T19:26:53;1.38;;;1.20;;
14933;SDS011;7560;51.364;12.384;2023-07-20T19:31:55;1.63;;;1.30;;
14933;SDS011;7560;51.364;12.384;2023-07-20T19:36:56;1.70;;;1.60;;
14933;SDS011;7560;51.364;12.384;2023-07-20T19:41:58;8.98;;;1.80;;
14933;SDS011;7560;51.364;12.384;2023-07-20T19:47:00;1.88;;;1.35;;
14933;SDS011;7560;51.364;12.384;2023-07-20T19:52:02;1.98;;;1.67;;
14933;SDS011;7560;51.364;12.384;2023-07-20T19:57:05;2.63;;;1.83;;
14933;SDS011;7560;51.364;12.384;2023-07-20T20:02:27;2.45;;;2.03;;
14933;SDS011;7560;51.364;12.384;2023-07-20T20:07:48;1.92;;;1.80;;
14933;SDS011;7560;51.364;12.384;2023-07-20T20:12:51;2.78;;;1.80;;
14933;SDS011;7560;51.364;12.384;2023-07-20T20:17:53;3.08;;;1.60;;
14933;SDS011;7560;51.364;12.384;2023-07-20T20:22:55;3.33;;;1.65;;
14933;SDS011;7560;51.364;12.384;2023-07-20T20:27:57;1.98;;;1.70;;
14933;SDS011;7560;51.364;12.384;2023-07-20T20:32:59;3.08;;;1.70;;
14933;SDS011;7560;51.364;12.384;2023-07-20T20:38:01;1.70;;;1.60;;
14933;SDS011;7560;51.364;12.384;2023-07-20T20:43:03;2.00;;;1.60;;
14933;SDS011;7560;51.364;12.384;2023-07-20T20:48:07;2.60;;;1.80;;
14933;SDS011;7560;51.364;12.384;2023-07-20T20:53:12;2.45;;;1.98;;
14933;SDS011;7560;51.364;12.384;2023-07-20T20:58:14;2.17;;;1.80;;
14933;SDS011;7560;51.364;12.384;2023-07-20T21:03:16;3.05;;;2.22;;
14933;SDS011;7560;51.364;12.384;2023-07-20T21:08:18;2.53;;;1.98;;
14933;SDS011;7560;51.364;12.384;2023-07-20T21:13:20;3.03;;;2.40;;
14933;SDS011;7560;51.364;12.384;2023-07-20T21:18:22;2.58;;;1.80;;
14933;SDS011;7560;51.364;12.384;2023-07-20T21:23:24;2.47;;;2.13;;
14933;SDS011;7560;51.364;12.384;2023-07-20T21:28:26;3.60;;;2.20;;
14933;SDS011;7560;51.364;12.384;2023-07-20T21:33:27;3.35;;;2.15;;
14933;SDS011;7560;51.364;12.384;2023-07-20T21:38:29;2.92;;;2.20;;
14933;SDS011;7560;51.364;12.384;2023-07-20T21:43:32;2.83;;;2.45;;
14933;SDS011;7560;51.364;12.384;2023-07-20T21:48:34;2.45;;;2.03;;
14933;SDS011;7560;51.364;12.384;2023-07-20T21:53:38;2.50;;;2.15;;
14933;SDS011;7560;51.364;12.384;2023-07-20T21:58:40;5.55;;;2.58;;
14933;SDS011;7560;51.364;12.384;2023-07-20T22:03:42;3.78;;;2.60;;
14933;SDS011;7560;51.364;12.384;2023-07-20T22:08:44;3.15;;;2.75;;
14933;SDS011;7560;51.364;12.384;2023-07-20T22:13:46;3.08;;;2.60;;
14933;SDS011;7560;51.364;12.384;2023-07-20T22:18:48;2.45;;;2.25;;
14933;SDS011;7560;51.364;12.384;2023-07-20T22:23:49;3.70;;;2.40;;
14933;SDS011;7560;51.364;12.384;2023-07-20T22:28:51;2.60;;;2.40;;
14933;SDS011;7560;51.364;12.384;2023-07-20T22:33:53;3.80;;;2.30;;
14933;SDS011;7560;51.364;12.384;2023-07-20T22:38:56;2.50;;;2.25;;
14933;SDS011;7560;51.364;12.384;2023-07-20T22:43:58;6.10;;;2.25;;
14933;SDS011;7560;51.364;12.384;2023-07-20T22:49:00;3.45;;;2.20;;
14933;SDS011;7560;51.364;12.384;2023-07-20T22:54:02;3.05;;;2.20;;
14933;SDS011;7560;51.364;12.384;2023-07-20T22:59:04;2.10;;;1.90;;
14933;SDS011;7560;51.364;12.384;2023-07-20T23:04:06;3.00;;;2.10;;
14933;SDS011;7560;51.364;12.384;2023-07-20T23:09:08;2.72;;;2.05;;
14933;SDS011;7560;51.364;12.384;2023-07-20T23:14:10;3.03;;;2.00;;
14933;SDS011;7560;51.364;12.384;2023-07-20T23:19:12;3.00;;;2.00;;
14933;SDS011;7560;51.364;12.384;2023-07-20T23:24:14;2.85;;;2.28;;
14933;SDS011;7560;51.364;12.384;2023-07-20T23:29:16;2.55;;;2.00;;
14933;SDS011;7560;51.364;12.384;2023-07-20T23:34:18;2.72;;;1.88;;
14933;SDS011;7560;51.364;12.384;2023-07-20T23:39:19;2.35;;;2.15;;
14933;SDS011;7560;51.364;12.384;2023-07-20T23:44:21;2.35;;;1.92;;
14933;SDS011;7560;51.364;12.384;2023-07-20T23:49:24;1.95;;;1.75;;
14933;SDS011;7560;51.364;12.384;2023-07-20T23:54:27;1.65;;;1.55;;
14933;SDS011;7560;51.364;12.384;2023-07-20T23:59:28;1.73;;;1.55;;
